Latest Weather Observations for Westmere

IDV60801

Issued at 9:35 am EDT Wednesday 26 November 2014 (issued every 30 minutes, with the page automatically refreshed every 10 minutes)

About weather observations | Map of weather stations | Latest weather observations for VIC | Other Formats
Station Details ID: 089112 Name: WESTMERE Lat: -37.71 Lon: 142.94 Height: 226.0 m
Data from the previous 72 hours. | See also: Recent months at Westmere
Date/Time
EDT
Temp
°C
App
Temp
°C
Dew
Point
Rel
Hum
%
Delta-T
°C
Wind Press
QNH
hPa
Press
MSL
hPa
Rain
since 9 am
mm
Dir
 
Spd
km/h
Gust
km/h
Spd
kts
Gust
kts
26/09:30am 13.7 11.9 9.4 75 2.2 SW 9 19 5 10 1022.3 1022.0 0.0
26/09:00am 12.9 9.8 9.0 77 2.0 WSW 15 22 8 12 1022.3 1022.0 0.0
26/08:30am 12.4 9.8 9.2 81 1.6 WSW 13 19 7 10 1022.2 1021.9 0.0
26/08:00am 11.4 9.5 9.1 86 1.2 W 9 13 5 7 1022.0 1021.7 0.0
26/07:30am 10.1 8.8 9.3 95 0.4 WNW 6 15 3 8 1021.8 1021.5 0.0
26/07:00am 8.9 7.8 8.6 98 0.1 NW 4 6 2 3 1021.4 1021.1 0.0
26/06:30am 8.2 7.0 8.1 99 0.0 NW 4 6 2 3 1021.2 1020.9 0.0
26/06:00am 7.4 6.0 7.3 99 0.0 NW 4 6 2 3 1021.1 1020.8 0.0
26/05:30am 6.5 4.3 6.4 99 0.0 NNW 7 7 4 4 1020.7 1020.4 0.0
26/05:00am 5.7 3.6 5.6 99 0.0 NW 6 6 3 3 1020.5 1020.2 0.0
26/04:30am 6.1 4.4 5.8 98 0.1 NW 4 4 2 2 1020.4 1020.1 0.0
26/04:00am 6.9 5.0 6.6 98 0.1 NW 6 6 3 3 1020.5 1020.2 0.0
26/03:30am 7.0 5.5 6.9 99 0.0 NW 4 6 2 3 1020.4 1020.1 0.0
26/03:00am 6.8 4.9 6.7 99 0.0 NW 6 7 3 4 1020.7 1020.4 0.0
26/02:30am 5.8 3.7 5.7 99 0.0 NW 6 6 3 3 1020.9 1020.6 0.0
26/02:00am 5.9 3.6 5.8 99 0.0 NW 7 9 4 5 1021.2 1020.9 0.0
26/01:30am 6.0 3.9 5.9 99 0.0 NNW 6 7 3 4 1021.4 1021.1 0.0
26/01:00am 6.8 4.7 6.7 99 0.0 NNW 7 7 4 4 1021.6 1021.3 0.0
26/12:30am 6.1 4.6 5.2 94 0.4 SW 2 4 1 2 1021.9 1021.6 0.0
26/12:00am 8.0 7.4 7.2 95 0.4 CALM 0 0 0 0 1022.2 1021.9 0.0
 
Date/Time
EDT
Temp
°C
App
Temp
°C
Dew
Point
Rel
Hum
%
Delta-T
°C
Wind Press
QNH
hPa
Press
MSL
hPa
Rain
since 9 am
mm
Dir
 
Spd
km/h
Gust
km/h
Spd
kts
Gust
kts
25/11:30pm 7.0 6.1 5.9 93 0.5 CALM 0 0 0 0 1022.1 1021.8 0.0
25/11:00pm 9.0 7.7 7.5 90 0.7 SW 4 7 2 4 1022.3 1022.0 0.0
25/10:30pm 9.5 7.8 7.4 87 1.0 SSW 6 6 3 3 1022.3 1022.0 0.0
25/10:00pm 9.9 8.2 7.7 86 1.1 S 6 6 3 3 1022.2 1021.9 0.0
25/09:30pm 10.6 8.4 7.8 83 1.4 SSW 9 13 5 7 1021.9 1021.6 0.0
25/09:00pm 11.5 8.5 7.8 78 1.8 SSW 13 19 7 10 1021.6 1021.3 0.0
25/08:30pm 12.6 9.3 7.9 73 2.3 SSW 15 20 8 11 1021.3 1021.0 0.0
25/08:00pm 13.9 9.9 8.1 68 2.9 SSW 19 26 10 14 1021.0 1020.7 0.0
25/07:30pm 14.9 10.3 8.2 64 3.4 SSW 22 30 12 16 1020.7 1020.4 0.0
25/07:00pm 16.1 11.9 8.1 59 4.1 SW 20 26 11 14 1020.2 1019.9 0.0
25/06:30pm 15.8 11.1 7.8 59 4.1 SSW 22 35 12 19 1020.0 1019.7 0.0
25/06:00pm 16.6 11.4 7.3 54 4.7 SSW 24 33 13 18 1019.6 1019.3 0.0
25/05:30pm 18.0 13.6 6.5 47 5.8 WSW 19 30 10 16 1019.5 1019.2 0.0
25/05:00pm 19.3 13.7 5.4 40 6.9 WSW 24 35 13 19 1019.3 1019.0 0.0
25/04:30pm 19.4 14.8 5.8 41 6.8 W 19 28 10 15 1019.4 1019.1 0.0
25/04:00pm 19.2 14.4 5.6 41 6.7 WSW 20 33 11 18 1019.5 1019.2 0.0
25/03:30pm 19.3 14.2 6.1 42 6.6 WSW 22 35 12 19 1019.5 1019.2 0.0
25/03:00pm 18.4 13.0 6.3 45 6.0 WSW 24 35 13 19 1019.6 1019.3 0.0
25/02:30pm 18.4 12.9 7.5 49 5.6 WSW 26 41 14 22 1019.7 1019.4 0.0
25/02:00pm 18.6 14.1 7.1 47 5.8 WSW 20 33 11 18 1019.7 1019.4 0.0
25/01:30pm 17.3 12.8 6.8 50 5.3 WSW 20 30 11 16 1019.9 1019.6 0.0
25/01:00pm 16.4 11.7 7.6 56 4.4 W 22 35 12 19 1020.0 1019.7 0.0
25/12:30pm 16.3 10.9 6.4 52 4.9 WSW 24 35 13 19 1020.0 1019.7 0.0
25/12:00pm 17.0 12.8 8.2 56 4.5 WSW 20 33 11 18 1020.2 1019.9 0.0
25/11:30am 15.7 11.2 7.0 56 4.3 WSW 20 32 11 17 1020.1 1019.8 0.0
25/11:00am 15.2 10.2 6.5 56 4.3 WSW 22 32 12 17 1020.0 1019.7 0.0
25/10:30am 14.8 11.0 7.4 61 3.7 WSW 17 28 9 15 1019.9 1019.6 0.0
25/10:00am 14.4 10.6 7.7 64 3.3 WSW 17 26 9 14 1019.9 1019.6 0.0
25/09:30am 13.6 9.2 7.2 65 3.2 WSW 20 32 11 17 1019.8 1019.5 0.0
25/09:00am 13.5 8.7 7.5 67 3.0 W 22 35 12 19 1019.3 1019.0 14.4
25/08:30am 12.6 8.8 9.1 79 1.8 W 19 26 10 14 1019.0 1018.7 14.4
25/08:00am 11.5 8.5 9.4 87 1.1 W 15 22 8 12 1018.6 1018.3 14.4
25/07:30am 10.4 7.0 9.2 92 0.6 W 17 26 9 14 1018.2 1017.9 14.4
25/07:00am 9.3 6.2 8.7 96 0.3 WNW 15 20 8 11 1017.8 1017.4 14.4
25/06:30am 8.0 5.4 7.6 97 0.2 WNW 11 15 6 8 1017.2 1016.8 14.4
25/06:00am 7.8 4.7 7.4 97 0.2 WNW 13 19 7 10 1016.8 1016.5 14.4
25/05:30am 7.9 4.5 7.5 97 0.2 WNW 15 20 8 11 1016.3 1016.0 14.4
25/05:00am 7.7 4.6 7.4 98 0.1 WNW 13 19 7 10 1016.1 1015.8 14.4
25/04:30am 7.8 4.7 7.2 96 0.3 WNW 13 19 7 10 1016.0 1015.7 14.4
25/04:00am 8.0 4.5 7.4 96 0.3 WNW 15 19 8 10 1015.9 1015.6 14.4
25/03:30am 8.1 4.6 7.3 95 0.4 WNW 15 20 8 11 1015.7 1015.4 14.4
25/03:00am 8.2 4.7 7.4 95 0.4 WNW 15 20 8 11 1015.8 1015.5 14.4
25/02:30am 8.1 5.0 7.2 94 0.4 WNW 13 15 7 8 1015.9 1015.6 14.4
25/02:00am 8.4 4.9 7.0 91 0.7 WNW 15 20 8 11 1015.9 1015.6 14.4
25/01:30am 8.8 5.2 6.9 88 0.9 WNW 15 20 8 11 1015.7 1015.4 14.4
25/01:00am 9.1 5.4 6.5 84 1.2 WNW 15 22 8 12 1015.5 1015.2 14.4
25/12:30am 9.3 6.0 6.6 83 1.3 WNW 13 19 7 10 1015.4 1015.1 14.4
25/12:00am 9.6 6.3 6.5 81 1.5 W 13 17 7 9 1015.3 1015.0 14.4
 
Date/Time
EDT
Temp
°C
App
Temp
°C
Dew
Point
Rel
Hum
%
Delta-T
°C
Wind Press
QNH
hPa
Press
MSL
hPa
Rain
since 9 am
mm
Dir
 
Spd
km/h
Gust
km/h
Spd
kts
Gust
kts
24/11:30pm 10.5 6.9 6.8 78 1.8 W 15 20 8 11 1015.1 1014.8 14.4
24/11:00pm 10.3 7.0 6.6 78 1.8 W 13 17 7 9 1015.1 1014.8 14.4
24/10:30pm 10.7 8.3 7.2 79 1.7 W 9 17 5 9 1014.9 1014.6 14.4
24/10:00pm 11.6 7.3 7.1 74 2.2 WSW 19 32 10 17 1014.7 1014.4 14.4
24/09:30pm 11.6 7.5 7.7 77 1.9 WSW 19 28 10 15 1014.4 1014.1 14.4
24/09:00pm 11.3 7.5 7.6 78 1.8 SW 17 26 9 14 1013.9 1013.5 14.4
24/08:30pm 12.8 8.7 6.4 65 3.1 SW 17 22 9 12 1013.3 1012.9 14.4
24/08:00pm 13.5 8.4 5.9 60 3.6 WSW 22 35 12 19 1012.8 1012.4 14.4
24/07:30pm 14.4 8.4 7.0 61 3.7 SW 28 41 15 22 1012.0 1011.7 14.4
24/07:00pm 15.3 10.8 10.1 71 2.8 SW 24 33 13 18 1011.3 1011.0 14.4
24/06:30pm 14.7 11.7 11.8 83 1.6 SW 19 28 10 15 1010.5 1010.2 14.4
24/06:00pm 13.5 10.2 11.7 89 1.0 WSW 20 30 11 16 1010.0 1009.6 14.4
24/05:30pm 12.2 9.9 11.6 96 0.3 SW 15 22 8 12 1010.2 1009.8 14.4
24/05:00pm 11.7 8.5 11.1 96 0.3 WSW 19 26 10 14 1009.9 1009.5 14.4
24/04:42pm 11.5 6.1 11.0 97 0.3 WSW 30 50 16 27 1010.1 1009.7 14.4
24/04:30pm 11.7 5.9 11.5 99 0.1 SW 33 48 18 26 1010.0 1009.6 14.4
24/04:25pm 12.4 7.4 12.2 99 0.1 SW 30 48 16 26 1010.0 1009.6 14.4
24/04:00pm 13.6 8.4 12.8 95 0.4 SW 32 46 17 25 1009.6 1009.2 14.4
24/03:39pm 16.2 11.7 12.6 79 2.0 WSW 28 54 15 29 1009.0 1008.6 14.4
24/03:30pm 18.0 15.2 13.3 74 2.7 W 20 33 11 18 1008.7 1008.3 14.4
24/03:00pm 18.1 15.7 13.8 76 2.5 WSW 19 26 10 14 1008.5 1008.1 14.4
24/02:30pm 17.1 16.4 15.3 89 1.1 WSW 13 19 7 10 1008.9 1008.5 14.4
24/02:00pm 14.9 13.6 14.7 99 0.1 WSW 15 19 8 10 1009.1 1008.7 14.4
24/01:30pm 14.6 12.4 14.4 99 0.1 WSW 19 26 10 14 1009.1 1008.7 14.4
24/01:00pm 14.9 12.9 14.9 100 0.0 W 19 28 10 15 1009.0 1008.6 14.4
24/12:30pm 15.3 15.9 15.3 100 0.0 W 6 9 3 5 1009.0 1008.6 14.2
24/12:00pm 15.2 15.6 15.2 100 0.0 W 7 11 4 6 1008.9 1008.5 12.0
24/11:30am 16.0 16.9 16.0 100 0.0 NNW 6 9 3 5 1008.7 1008.3 11.2
24/11:00am 16.1 16.4 16.1 100 0.0 N 9 17 5 9 1008.8 1008.4 11.2
24/10:30am 14.6 14.8 14.6 100 0.0 NNW 7 15 4 8 1008.1 1007.7 10.4
24/10:27am 14.7 14.9 14.7 100 0.0 NNW 7 15 4 8 1008.5 1008.1 10.2
24/10:11am 14.4 13.7 14.4 100 0.0 NNW 11 20 6 11 1010.6 1010.3 5.2
24/10:00am 14.3 14.0 14.3 100 0.0 NE 9 15 5 8 1008.4 1008.0 3.0
24/09:30am 13.6 13.5 13.4 99 0.1 S 6 9 3 5 1009.3 1008.9 2.2
24/09:00am 13.7 14.0 13.5 99 0.1 NW 4 7 2 4 1009.8 1009.4 2.8
24/08:30am 13.6 14.6 13.3 98 0.2 CALM 0 7 0 4 1008.5 1008.1 1.4
24/08:00am 13.1 11.9 12.9 99 0.1 NE 11 19 6 10 1008.9 1008.5 1.4
24/07:30am 12.9 12.3 12.4 97 0.3 WNW 7 20 4 11 1009.7 1009.3 0.4
24/07:00am 12.4 12.5 11.5 94 0.5 S 2 7 1 4 1008.8 1008.4 0.0
24/06:30am 12.7 9.5 11.4 92 0.7 WSW 19 28 10 15 1009.7 1009.3 0.0
24/06:09am 11.9 8.4 10.1 89 0.9 W 19 28 10 15 1009.7 1009.3 0.0
24/06:00am 11.3 11.2 9.6 89 0.9 CALM 0 6 0 3 1007.5 1007.2 0.0
24/05:30am 11.2 11.1 9.3 88 1.0 CALM 0 0 0 0 1007.4 1007.1 0.0
24/05:00am 11.2 9.8 9.5 89 0.9 NE 7 9 4 5 1007.3 1007.0 0.0
24/04:30am 11.2 9.8 9.5 89 0.9 ENE 7 9 4 5 1008.2 1007.8 0.0
24/04:00am 10.5 9.0 9.1 91 0.7 NE 7 9 4 5 1008.7 1008.3 0.0
24/03:30am 9.9 8.7 8.2 89 0.8 SSW 4 7 2 4 1008.9 1008.5 0.0
24/03:00am 10.2 9.4 8.1 87 1.0 SSW 2 4 1 2 1009.6 1009.2 0.0
24/02:30am 10.9 9.3 8.8 87 1.1 SSW 7 9 4 5 1009.9 1009.5 0.0
24/02:00am 11.4 10.8 9.0 85 1.2 S 2 7 1 4 1010.2 1009.8 0.0
24/01:30am 12.0 11.5 9.2 83 1.4 S 2 4 1 2 1010.8 1010.5 0.0
24/01:00am 12.3 11.5 9.7 84 1.3 SSW 4 6 2 3 1011.3 1011.0 0.0
24/12:30am 12.5 11.1 9.5 82 1.5 SSW 7 9 4 5 1011.4 1011.1 0.0
24/12:00am 12.9 11.7 9.5 80 1.8 SSW 6 9 3 5 1011.9 1011.6 0.0
 
Date/Time
EDT
Temp
°C
App
Temp
°C
Dew
Point
Rel
Hum
%
Delta-T
°C
Wind Press
QNH
hPa
Press
MSL
hPa
Rain
since 9 am
mm
Dir
 
Spd
km/h
Gust
km/h
Spd
kts
Gust
kts
23/11:30pm 13.6 12.4 9.6 77 2.1 SSE 6 7 3 4 1012.0 1011.7 0.0
23/11:00pm 14.7 13.6 10.5 76 2.2 SE 7 11 4 6 1012.3 1012.0 0.0
23/10:30pm 15.2 14.3 10.6 74 2.5 SSE 6 7 3 4 1013.0 1012.6 0.0
23/10:00pm 15.8 13.9 10.6 71 2.8 SSE 11 17 6 9 1012.8 1012.4 0.0
23/09:30pm 16.2 14.4 10.7 70 3.0 S 11 15 6 8 1012.3 1012.0 0.0
23/09:00pm 17.1 14.6 11.2 68 3.2 SSW 15 22 8 12 1013.3 1012.9 0.0
23/08:30pm 19.1 16.7 11.4 61 4.3 SSW 15 20 8 11 1013.0 1012.6 0.0
23/08:00pm 20.2 17.8 11.4 57 4.9 S 15 20 8 11 1011.8 1011.5 0.0
23/07:30pm 21.6 18.4 11.3 52 5.8 S 19 28 10 15 1011.3 1011.0 0.0
23/07:00pm 25.1 22.3 5.3 28 10.2 SSW 9 13 5 7 1010.8 1010.5 0.0
23/06:30pm 25.7 23.0 5.8 28 10.3 WSW 9 15 5 8 1011.0 1010.7 0.0
23/06:00pm 26.2 23.4 5.2 26 10.8 WSW 9 19 5 10 1011.4 1011.1 0.0
23/05:30pm 25.9 22.8 5.5 27 10.6 SW 11 17 6 9 1011.6 1011.3 0.0
23/05:00pm 26.1 23.1 6.2 28 10.4 SW 11 19 6 10 1011.7 1011.4 0.0
23/04:30pm 26.0 22.5 5.6 27 10.6 SSW 13 17 7 9 1011.6 1011.3 0.0
23/04:00pm 26.3 21.5 4.7 25 11.1 SW 19 26 10 14 1011.5 1011.2 0.0
23/03:30pm 26.7 21.9 4.5 24 11.3 SW 19 30 10 16 1011.3 1011.0 0.0
23/03:00pm 26.9 23.1 5.8 26 11.1 SW 15 24 8 13 1011.2 1010.9 0.0
23/02:30pm 26.2 22.8 5.7 27 10.7 SSW 13 20 7 11 1011.6 1011.3 0.0
23/02:00pm 25.1 22.4 5.8 29 10.0 SW 9 19 5 10 1011.3 1011.0 0.0
23/01:30pm 24.6 21.3 6.4 31 9.5 WSW 13 22 7 12 1011.5 1011.2 0.0
23/01:00pm 23.8 20.9 6.6 33 9.0 WSW 11 20 6 11 1011.5 1011.2 0.0
23/12:30pm 22.7 20.2 6.5 35 8.4 SW 9 17 5 9 1011.6 1011.3 0.0
23/12:00pm 21.6 19.6 7.1 39 7.5 W 7 13 4 7 1011.8 1011.5 0.0
23/11:30am 20.5 19.6 7.8 44 6.6 WSW 2 6 1 3 1012.0 1011.7 0.0
23/11:00am 20.4 18.9 8.4 46 6.3 S 6 9 3 5 1012.5 1012.1 0.0
23/10:30am 19.1 17.8 7.5 47 6.0 ENE 4 7 2 4 1012.9 1012.5 0.0
23/10:00am 17.7 17.4 11.5 67 3.4 NNE 4 7 2 4 1013.4 1013.0 0.0

Other Formats:

Comma delimited format used in spreadsheet applications
http://www.bom.gov.au/fwo/IDV60801/IDV60801.95840.axf

JavaScript Object Notation format (JSON) in row-major order
http://www.bom.gov.au/fwo/IDV60801/IDV60801.95840.json